Topcliffe, United Kingdom
Current Conditions -  °F | °C
As of 7:50 PM on Thursday 20 Nov 2014 (Local Time) from EGXZ Reporting Station
Haze Haze  
Wind Chill:   Ceiling: 6000
Heat Index:   Visibility: 4mi
Dew Point:   Wind: 5mph
Humidity: 100%   Direction: 20°NNE
Pressure: 30.3"   Gusts: NA
Location:  54.2°N, 1.38°W
Report Text: EGXZ 201950Z AUTO 02004KT 6000 BR SCT020/// OVC060/// 08/08 Q1026
Loading
Personal Weather Stations






























Interactive Weather Map New forecast layout! Learn more

10-Day Weather Forecast

Advertisements
Track Severe Weather on mobile